Time;durP1;ratioP1;P1;durP2;ratioP2;P2;SDS_P1;SDS_P2;PMS_P1;PMS_P2;Temp;Humidity;BMP_temperature;BMP_pressure;BME280_temperature;BME280_humidity;BME280_pressure;Samples;Min_cycle;Max_cycle;Signal;HPM_P1;HPM_P2
2021/03/05 00:01:19;;;;;;;46.65;10.07;;;3.60;99.90;;;;;;5096810;28;20043;-71
2021/03/05 00:03:45;;;;;;;32.20;9.50;;;3.60;99.90;;;;;;5096499;28;20027;-71
2021/03/05 00:06:11;;;;;;;33.78;9.77;;;3.70;99.90;;;;;;5095258;28;20457;-71
2021/03/05 00:08:37;;;;;;;41.67;11.63;;;3.60;99.90;;;;;;5096600;28;20054;-71
2021/03/05 00:11:02;;;;;;;35.85;10.85;;;3.60;99.90;;;;;;5096621;28;20016;-71
2021/03/05 00:13:28;;;;;;;36.10;10.10;;;3.70;99.90;;;;;;5095448;28;20020;-70
2021/03/05 00:15:54;;;;;;;32.63;10.43;;;3.70;99.90;;;;;;5096504;28;20069;-71
2021/03/05 00:18:19;;;;;;;38.70;10.75;;;3.60;99.90;;;;;;5094673;28;20052;-71
2021/03/05 00:20:51;;;;;;;47.08;11.75;;;3.60;99.90;;;;;;5094637;28;20075;-71
2021/03/05 00:23:17;;;;;;;42.42;11.82;;;3.60;99.90;;;;;;5095822;28;20020;-71
2021/03/05 00:25:43;;;;;;;44.05;12.30;;;3.60;99.90;;;;;;5094536;28;20389;-71
2021/03/05 00:28:19;;;;;;;44.42;13.63;;;3.60;99.90;;;;;;5095792;28;20040;-71
2021/03/05 00:30:44;;;;;;;36.58;11.48;;;3.60;99.90;;;;;;5095925;28;20051;-71
2021/03/05 00:33:10;;;;;;;50.03;14.05;;;3.70;99.90;;;;;;5094395;28;20052;-71
2021/03/05 00:35:36;;;;;;;43.15;15.75;;;3.60;99.90;;;;;;5096156;28;20024;-71
2021/03/05 00:38:01;;;;;;;48.10;15.52;;;3.60;99.90;;;;;;5095806;28;20020;-70
2021/03/05 00:40:27;;;;;;;49.10;16.23;;;3.60;99.90;;;;;;5096090;28;20024;-71
2021/03/05 00:42:53;;;;;;;42.00;17.00;;;3.60;99.90;;;;;;5096002;28;20031;-72
2021/03/05 00:45:21;;;;;;;41.20;17.40;;;3.60;99.90;;;;;;5095964;28;20377;-70
2021/03/05 00:47:47;;;;;;;42.00;19.45;;;3.60;99.90;;;;;;5095866;28;20405;-71
2021/03/05 00:50:15;;;;;;;49.53;19.35;;;3.60;99.90;;;;;;5095538;28;20097;-71
2021/03/05 00:52:41;;;;;;;52.97;20.17;;;3.60;99.90;;;;;;5095510;28;20487;-71
2021/03/05 00:55:09;;;;;;;50.17;20.73;;;3.50;99.90;;;;;;5095529;28;20024;-71
2021/03/05 00:57:35;;;;;;;51.30;21.42;;;3.50;99.90;;;;;;5094264;28;20020;-71
2021/03/05 01:00:06;;;;;;;45.67;22.13;;;3.50;99.90;;;;;;5094122;28;20108;-71
2021/03/05 01:02:32;;;;;;;50.30;24.38;;;3.60;99.90;;;;;;5095315;28;20027;-70
2021/03/05 01:05:16;;;;;;;53.00;24.52;;;3.50;99.90;;;;;;5095611;28;20020;-72
2021/03/05 01:07:42;;;;;;;53.65;23.52;;;3.40;99.90;;;;;;5094194;28;20111;-72
2021/03/05 01:10:09;;;;;;;50.20;24.13;;;3.40;99.90;;;;;;5094982;28;20055;-72
2021/03/05 01:12:35;;;;;;;48.70;23.38;;;3.40;99.90;;;;;;5094011;28;20024;-72
2021/03/05 01:15:01;;;;;;;51.60;24.50;;;3.40;99.90;;;;;;5093649;28;20028;-73
2021/03/05 01:17:27;;;;;;;52.75;25.23;;;3.40;99.90;;;;;;5095357;28;20055;-72
2021/03/05 01:19:53;;;;;;;52.22;24.52;;;3.40;99.90;;;;;;5095293;28;20020;-72
2021/03/05 01:22:33;;;;;;;54.83;24.35;;;3.30;99.90;;;;;;5094975;28;20030;-72
2021/03/05 01:24:59;;;;;;;54.63;24.77;;;3.30;99.90;;;;;;5094680;28;20085;-72
2021/03/05 01:27:25;;;;;;;55.65;24.67;;;3.30;99.90;;;;;;5094700;28;20048;-73
2021/03/05 01:29:50;;;;;;;51.28;24.83;;;3.40;99.90;;;;;;5094817;28;20024;-72
2021/03/05 01:32:24;;;;;;;53.55;24.70;;;3.30;99.90;;;;;;5093728;28;20024;-72
2021/03/05 01:34:50;;;;;;;51.30;24.70;;;3.30;99.90;;;;;;5093452;28;20028;-72
2021/03/05 01:37:15;;;;;;;49.38;23.48;;;3.30;99.90;;;;;;5094414;28;20111;-72
2021/03/05 01:39:41;;;;;;;55.92;26.27;;;3.30;99.90;;;;;;5076185;28;20051;-72
2021/03/05 01:42:07;;;;;;;46.10;22.33;;;3.30;99.90;;;;;;5093811;28;20028;-72
2021/03/05 01:44:36;;;;;;;49.97;23.77;;;3.30;99.90;;;;;;5094994;28;20027;-72
2021/03/05 01:47:02;;;;;;;52.42;24.58;;;3.30;99.90;;;;;;5094426;28;20024;-72
2021/03/05 01:49:27;;;;;;;48.85;23.45;;;3.30;99.90;;;;;;5094611;28;20039;-71
2021/03/05 01:51:54;;;;;;;49.45;23.35;;;3.30;99.90;;;;;;5094638;28;20035;-71
2021/03/05 01:54:20;;;;;;;46.13;23.92;;;3.30;99.90;;;;;;5093035;28;20548;-71
2021/03/05 01:56:48;;;;;;;46.33;21.63;;;3.40;99.90;;;;;;5094320;28;20099;-71
2021/03/05 01:59:17;;;;;;;49.78;23.52;;;3.30;99.90;;;;;;5094310;28;20022;-72
2021/03/05 02:01:42;;;;;;;46.72;21.05;;;3.30;99.90;;;;;;5093954;28;20475;-72
2021/03/05 02:04:10;;;;;;;50.92;22.13;;;3.30;99.90;;;;;;5094479;28;20027;-72
2021/03/05 02:06:37;;;;;;;48.72;22.80;;;3.30;99.90;;;;;;5094228;28;20052;-72
2021/03/05 02:09:03;;;;;;;45.28;21.27;;;3.30;99.90;;;;;;5094352;28;20047;-72
2021/03/05 02:11:29;;;;;;;46.90;22.17;;;3.30;99.90;;;;;;5094123;28;20518;-72
2021/03/05 02:13:56;;;;;;;45.28;22.73;;;3.30;99.90;;;;;;5094314;28;20024;-72
2021/03/05 02:23:26;;;;;;;38.10;18.63;;;3.30;99.90;;;;;;5093630;28;20036;-71
2021/03/05 02:26:23;;;;;;;37.92;18.85;;;3.20;99.90;;;;;;5092374;28;20020;-71
2021/03/05 02:29:29;;;;;;;40.03;18.88;;;3.20;99.90;;;;;;5093312;28;20040;-71
2021/03/05 02:31:59;;;;;;;38.25;19.98;;;3.20;99.90;;;;;;5093423;28;20131;-71
2021/03/05 02:34:30;;;;;;;34.88;19.08;;;3.20;99.90;;;;;;5092531;28;20380;-72
2021/03/05 02:37:01;;;;;;;36.63;19.33;;;3.20;99.90;;;;;;5092302;28;20024;-72
2021/03/05 02:39:49;;;;;;;35.03;18.83;;;3.10;99.90;;;;;;5092804;28;20381;-71
2021/03/05 02:42:22;;;;;;;33.15;18.80;;;3.20;99.90;;;;;;5093757;28;20024;-71
2021/03/05 02:44:55;;;;;;;30.08;16.60;;;3.20;99.90;;;;;;5096123;28;20114;-71
2021/03/05 02:47:22;;;;;;;34.00;17.90;;;3.20;99.90;;;;;;5097997;28;20090;-71
2021/03/05 02:49:51;;;;;;;36.55;18.83;;;3.20;99.90;;;;;;5097623;28;20442;-71
2021/03/05 02:52:19;;;;;;;37.03;19.33;;;3.20;99.90;;;;;;5098201;28;20480;-71
2021/03/05 02:54:52;;;;;;;40.22;19.98;;;3.20;99.90;;;;;;5097872;28;20024;-71
2021/03/05 02:57:19;;;;;;;40.35;19.33;;;3.20;99.90;;;;;;5098125;28;20016;-71
2021/03/05 02:59:47;;;;;;;39.75;20.35;;;3.20;99.90;;;;;;5098036;28;20024;-71
2021/03/05 03:02:13;;;;;;;33.40;18.67;;;3.10;99.90;;;;;;5097742;28;20027;-71
2021/03/05 03:04:43;;;;;;;36.60;18.08;;;3.10;99.90;;;;;;5097652;28;20408;-71
2021/03/05 03:07:11;;;;;;;40.70;19.38;;;3.00;99.90;;;;;;5097914;28;20101;-71
2021/03/05 03:09:39;;;;;;;28.80;16.33;;;3.00;99.90;;;;;;5097795;28;20372;-71
2021/03/05 03:12:08;;;;;;;25.30;13.82;;;3.00;99.90;;;;;;5097849;28;20016;-71
2021/03/05 03:14:36;;;;;;;20.95;11.18;;;3.00;99.90;;;;;;5096634;28;20047;-71
2021/03/05 03:17:02;;;;;;;21.52;11.27;;;3.00;99.90;;;;;;5097730;28;20088;-71
2021/03/05 03:19:28;;;;;;;22.55;10.43;;;2.90;99.90;;;;;;5097631;28;20453;-71
2021/03/05 03:21:53;;;;;;;17.67;8.90;;;2.80;99.90;;;;;;5097030;28;20024;-71
2021/03/05 03:24:19;;;;;;;19.45;9.70;;;2.80;99.90;;;;;;5097606;28;20380;-71
2021/03/05 03:26:45;;;;;;;16.67;9.13;;;2.70;99.90;;;;;;5097362;28;20036;-71
2021/03/05 03:29:11;;;;;;;20.83;9.02;;;2.80;99.90;;;;;;5096429;28;20036;-71
2021/03/05 03:31:39;;;;;;;20.02;9.20;;;2.70;99.90;;;;;;5097464;28;20026;-71
2021/03/05 03:34:05;;;;;;;15.10;8.07;;;2.70;99.90;;;;;;5097112;28;20018;-71
2021/03/05 03:36:36;;;;;;;12.13;6.75;;;2.60;99.90;;;;;;5097293;28;20016;-70
2021/03/05 03:39:04;;;;;;;14.70;7.05;;;2.50;99.90;;;;;;5095820;28;20506;-71
2021/03/05 03:41:32;;;;;;;13.18;5.88;;;2.50;99.90;;;;;;5097255;28;20028;-71
2021/03/05 03:43:57;;;;;;;7.75;4.13;;;2.40;99.90;;;;;;5097165;28;20028;-71
2021/03/05 03:46:23;;;;;;;13.10;4.40;;;2.30;99.90;;;;;;5096853;28;20039;-71
2021/03/05 03:48:54;;;;;;;7.10;3.92;;;2.20;99.90;;;;;;5096780;28;20031;-71
2021/03/05 03:51:23;;;;;;;8.48;3.90;;;2.20;99.90;;;;;;5095268;28;20031;-71
2021/03/05 03:53:50;;;;;;;8.15;3.35;;;2.20;99.90;;;;;;5096450;28;20024;-71
2021/03/05 03:56:18;;;;;;;10.18;2.90;;;2.10;99.90;;;;;;5096205;28;20081;-70
2021/03/05 03:58:48;;;;;;;8.35;2.88;;;2.00;99.90;;;;;;5096890;28;20020;-71
2021/03/05 04:01:15;;;;;;;6.22;2.78;;;1.90;99.90;;;;;;5096592;28;20047;-71
2021/03/05 04:03:44;;;;;;;7.57;3.00;;;1.80;99.90;;;;;;5095615;28;20107;-71
2021/03/05 04:06:11;;;;;;;7.93;3.20;;;1.70;99.90;;;;;;5096696;28;20077;-71
2021/03/05 04:08:41;;;;;;;5.68;2.40;;;1.60;99.90;;;;;;5096366;28;20020;-71
2021/03/05 04:11:08;;;;;;;5.40;2.53;;;1.60;99.90;;;;;;5096117;28;20036;-71
2021/03/05 04:13:37;;;;;;;7.75;2.92;;;1.50;99.90;;;;;;5096066;28;20016;-72
2021/03/05 04:16:03;;;;;;;5.80;2.28;;;1.40;99.90;;;;;;5096027;28;20400;-71
2021/03/05 04:18:31;;;;;;;5.65;2.47;;;1.30;99.90;;;;;;5094717;28;20024;-72
2021/03/05 04:21:00;;;;;;;6.47;2.60;;;1.30;99.90;;;;;;5096492;28;20144;-71
2021/03/05 04:23:26;;;;;;;5.47;2.30;;;1.20;99.90;;;;;;5096200;28;20396;-71
2021/03/05 04:25:51;;;;;;;7.40;2.40;;;1.10;99.90;;;;;;5096086;28;20036;-71
2021/03/05 04:28:17;;;;;;;5.93;2.13;;;1.00;99.90;;;;;;5095713;28;20039;-71
2021/03/05 04:30:42;;;;;;;4.90;2.13;;;0.90;99.90;;;;;;5096283;28;20024;-71
2021/03/05 04:33:08;;;;;;;6.00;2.80;;;0.80;99.90;;;;;;5094439;28;20043;-71
2021/03/05 04:35:33;;;;;;;4.28;2.20;;;0.70;99.90;;;;;;5094254;28;20430;-71
2021/03/05 04:37:59;;;;;;;5.30;2.30;;;0.70;99.90;;;;;;5094718;28;20093;-71
2021/03/05 04:40:25;;;;;;;7.88;2.10;;;0.70;99.90;;;;;;5096073;28;20031;-71
2021/03/05 04:43:06;;;;;;;10.60;2.67;;;0.60;99.90;;;;;;5096055;28;20028;-71
2021/03/05 04:45:31;;;;;;;9.85;2.47;;;0.60;99.90;;;;;;5095443;28;20020;-71
2021/03/05 04:47:57;;;;;;;4.93;2.47;;;0.50;99.90;;;;;;5095586;28;20099;-71
2021/03/05 04:50:22;;;;;;;7.80;2.58;;;0.40;99.90;;;;;;5095901;28;20048;-70
2021/03/05 04:52:48;;;;;;;4.00;2.10;;;0.40;99.90;;;;;;5094748;28;20099;-71
2021/03/05 04:55:13;;;;;;;9.65;3.15;;;0.40;99.90;;;;;;5095834;28;20052;-71
2021/03/05 04:57:39;;;;;;;5.72;2.35;;;0.40;99.90;;;;;;5095776;28;20020;-71
2021/03/05 05:00:05;;;;;;;5.70;2.30;;;0.30;99.90;;;;;;5094587;28;20024;-71
2021/03/05 05:02:31;;;;;;;6.03;2.80;;;0.20;99.90;;;;;;5095424;28;20016;-71
2021/03/05 05:04:57;;;;;;;5.75;2.45;;;0.20;99.90;;;;;;5095670;28;20024;-71
2021/03/05 05:07:22;;;;;;;8.43;3.17;;;0.10;99.90;;;;;;5093625;28;20024;-71
2021/03/05 05:09:48;;;;;;;7.50;2.95;;;0.10;99.90;;;;;;5094086;28;20457;-71
2021/03/05 05:12:14;;;;;;;6.07;2.78;;;0.10;99.90;;;;;;5095208;28;20012;-71
2021/03/05 05:15:04;;;;;;;7.22;2.97;;;0.00;99.90;;;;;;5095449;28;20557;-71
2021/03/05 05:17:30;;;;;;;10.93;3.35;;;0.00;99.90;;;;;;5095124;28;20027;-70
2021/03/05 05:19:55;;;;;;;10.90;3.22;;;0.00;99.90;;;;;;5094648;28;20028;-70
2021/03/05 05:22:21;;;;;;;10.82;3.40;;;-0.10;99.90;;;;;;5093416;28;20020;-71
2021/03/05 05:24:46;;;;;;;6.80;3.15;;;-0.20;99.90;;;;;;5095264;28;20020;-71
2021/03/05 05:27:12;;;;;;;7.07;3.22;;;-0.20;99.90;;;;;;5094907;28;20174;-70
2021/03/05 05:29:37;;;;;;;8.65;2.97;;;-0.20;99.90;;;;;;5094819;28;20032;-70
2021/03/05 05:32:03;;;;;;;7.40;3.15;;;-0.20;99.90;;;;;;5094831;28;20140;-71
2021/03/05 05:34:29;;;;;;;9.75;3.90;;;-0.30;99.90;;;;;;5094791;28;20016;-70
2021/03/05 05:36:54;;;;;;;8.10;3.50;;;-0.30;99.90;;;;;;5094727;28;20020;-71
2021/03/05 05:39:20;;;;;;;9.73;3.17;;;-0.40;99.90;;;;;;5094952;28;20036;-71
2021/03/05 05:41:45;;;;;;;8.70;3.33;;;-0.30;99.90;;;;;;5093264;28;20054;-71
2021/03/05 05:44:11;;;;;;;6.18;3.25;;;-0.40;99.90;;;;;;5093649;28;20024;-71
2021/03/05 05:46:39;;;;;;;8.00;3.33;;;-0.40;99.90;;;;;;5094835;28;20035;-71
2021/03/05 05:49:05;;;;;;;6.20;2.78;;;-0.40;99.90;;;;;;5094739;28;20051;-70
2021/03/05 05:51:38;;;;;;;9.00;3.13;;;-0.40;99.90;;;;;;5094475;28;20020;-71
2021/03/05 05:54:08;;;;;;;14.75;3.78;;;-0.50;99.90;;;;;;5094700;28;20023;-71
2021/03/05 05:56:38;;;;;;;8.48;3.42;;;-0.50;99.90;;;;;;5094644;28;20027;-71
2021/03/05 05:59:04;;;;;;;7.78;3.03;;;-0.40;99.90;;;;;;5094578;28;20488;-71
2021/03/05 06:01:33;;;;;;;8.38;3.22;;;-0.50;99.90;;;;;;5094600;28;20024;-71
2021/03/05 06:04:02;;;;;;;6.07;3.55;;;-0.50;99.90;;;;;;5094022;28;20035;-70
2021/03/05 06:06:29;;;;;;;9.43;3.47;;;-0.50;99.90;;;;;;5094570;28;20472;-71
2021/03/05 06:08:56;;;;;;;10.95;3.67;;;-0.60;99.90;;;;;;5092574;28;20494;-71
2021/03/05 06:11:22;;;;;;;7.88;3.03;;;-0.60;99.90;;;;;;5094417;28;20016;-71
2021/03/05 06:13:47;;;;;;;7.28;3.08;;;-0.50;99.90;;;;;;5094412;28;20024;-71
2021/03/05 06:16:16;;;;;;;12.18;3.50;;;-0.60;99.90;;;;;;5093817;28;20028;-71
2021/03/05 06:18:43;;;;;;;9.52;3.72;;;-0.60;99.90;;;;;;5092738;28;20106;-71
2021/03/05 06:21:10;;;;;;;15.57;4.95;;;-0.60;99.90;;;;;;5094321;28;20350;-71
2021/03/05 06:24:05;;;;;;;9.18;3.92;;;-0.60;99.90;;;;;;5094298;28;20024;-71
2021/03/05 06:26:50;;;;;;;6.88;3.40;;;-0.50;99.90;;;;;;5093962;28;20030;-71
2021/03/05 06:29:17;;;;;;;8.38;3.47;;;-0.40;99.90;;;;;;5094077;28;20415;-71
2021/03/05 06:31:54;;;;;;;5.25;2.85;;;-0.30;99.90;;;;;;5093875;28;20044;-71
2021/03/05 06:34:21;;;;;;;8.07;3.50;;;-0.20;99.90;;;;;;5093569;28;20096;-71
2021/03/05 06:37:06;;;;;;;11.80;4.30;;;-0.20;99.90;;;;;;5093607;28;20379;-71
2021/03/05 06:39:34;;;;;;;8.23;3.20;;;-0.10;99.90;;;;;;5093551;28;20020;-71
2021/03/05 06:42:03;;;;;;;8.73;3.28;;;0.00;99.90;;;;;;5092633;28;20016;-71
2021/03/05 06:44:30;;;;;;;6.35;3.28;;;0.10;99.90;;;;;;5094077;28;20020;-70
2021/03/05 06:46:55;;;;;;;8.05;3.40;;;0.20;99.90;;;;;;5093025;28;20112;-71
2021/03/05 06:49:21;;;;;;;8.07;2.92;;;0.50;99.90;;;;;;5093670;28;20418;-71
2021/03/05 06:51:55;;;;;;;6.35;2.83;;;0.90;99.90;;;;;;5092836;28;20089;-71
2021/03/05 06:54:27;;;;;;;6.10;2.70;;;0.90;99.90;;;;;;5092811;28;20468;-70
2021/03/05 06:56:52;;;;;;;8.80;3.20;;;0.80;99.90;;;;;;5093682;28;20458;-70
2021/03/05 06:59:20;;;;;;;7.35;2.78;;;0.90;99.90;;;;;;5092446;28;20034;-70
2021/03/05 07:01:52;;;;;;;8.68;2.67;;;1.20;99.90;;;;;;5092863;28;20027;-71
2021/03/05 07:04:22;;;;;;;7.60;2.10;;;1.40;99.90;;;;;;5092179;28;20031;-71
2021/03/05 07:06:56;;;;;;;11.65;3.03;;;1.40;99.90;;;;;;5093805;28;20044;-71
2021/03/05 07:09:26;;;;;;;7.75;2.60;;;1.30;99.90;;;;;;5093451;28;20034;-70
2021/03/05 07:11:54;;;;;;;7.28;2.63;;;1.80;99.90;;;;;;5093532;28;20521;-71
2021/03/05 07:14:41;;;;;;;11.00;3.20;;;2.00;99.90;;;;;;5093074;28;20119;-71
2021/03/05 07:17:08;;;;;;;8.65;3.15;;;2.20;99.90;;;;;;5093686;28;20023;-71
2021/03/05 07:19:36;;;;;;;8.85;3.20;;;2.00;99.90;;;;;;5093360;28;20056;-71
2021/03/05 07:22:03;;;;;;;6.45;2.58;;;2.40;99.90;;;;;;5092197;28;20028;-72
2021/03/05 07:24:33;;;;;;;11.73;2.92;;;2.40;99.90;;;;;;5093341;28;20024;-72
2021/03/05 07:27:01;;;;;;;12.77;2.90;;;2.30;99.90;;;;;;5092050;28;20028;-71
2021/03/05 07:29:32;;;;;;;12.35;3.15;;;2.30;99.90;;;;;;5091805;28;20041;-72
2021/03/05 07:34:44;;;;;;;7.22;2.50;;;2.40;99.90;;;;;;5111840;27;20109;-71
2021/03/05 07:37:11;;;;;;;6.57;2.55;;;2.40;99.90;;;;;;5110638;28;20499;-71
2021/03/05 07:39:42;;;;;;;6.85;2.53;;;2.30;99.90;;;;;;5109385;28;20099;-71
2021/03/05 07:42:08;;;;;;;9.40;3.30;;;2.60;99.90;;;;;;5103413;28;20122;-71
2021/03/05 07:44:36;;;;;;;7.28;2.42;;;2.40;99.90;;;;;;5110801;28;20032;-70
2021/03/05 07:47:06;;;;;;;10.60;3.10;;;3.20;99.90;;;;;;5109557;28;20023;-71
2021/03/05 07:49:34;;;;;;;7.65;2.90;;;3.20;99.90;;;;;;5109267;28;20020;-71
2021/03/05 07:52:00;;;;;;;10.93;3.00;;;3.10;99.90;;;;;;5109253;28;20052;-72
2021/03/05 08:08:01;;;;;;;10.70;3.53;;;2.90;99.90;;;;;;5131517;27;20358;-70
2021/03/05 08:10:44;;;;;;;9.85;2.88;;;3.30;99.90;;;;;;5131247;28;20110;-70
2021/03/05 08:13:30;;;;;;;;;;;3.70;99.90;;;;;;5112924;28;20076;-73
2021/03/05 08:24:36;;;;;;;12.25;3.08;;;3.80;99.90;;;;;;5069940;28;20465;-72
2021/03/05 08:27:08;;;;;;;9.88;2.97;;;4.30;99.90;;;;;;5070784;28;20031;-72
2021/03/05 08:30:04;;;;;;;13.73;3.22;;;4.90;99.90;;;;;;5070402;28;20099;-72
2021/03/05 08:35:13;;;;;;;6.20;3.08;;;6.60;99.90;;;;;;5110842;27;20878;-72
2021/03/05 08:37:46;;;;;;;7.28;2.80;;;5.10;99.90;;;;;;5111726;28;20185;-71
2021/03/05 08:42:57;;;;;;;12.35;2.92;;;4.70;99.90;;;;;;5110708;27;20363;-71
2021/03/05 08:45:29;;;;;;;5.18;2.50;;;5.10;99.90;;;;;;5111267;28;20020;-71
2021/03/05 08:47:58;;;;;;;7.70;2.63;;;6.50;99.90;;;;;;5111284;28;20026;-72
2021/03/05 08:50:30;;;;;;;4.25;2.20;;;7.60;99.90;;;;;;5110775;28;20047;-71
2021/03/05 08:52:58;;;;;;;7.97;2.63;;;6.50;99.90;;;;;;5110162;28;20056;-71
2021/03/05 08:55:28;;;;;;;9.85;2.72;;;6.00;99.90;;;;;;5107308;28;20032;-72
2021/03/05 08:57:54;;;;;;;9.55;3.30;;;6.00;99.90;;;;;;5110732;28;20518;-73
2021/03/05 09:00:22;;;;;;;8.85;2.47;;;6.70;99.90;;;;;;5110657;28;20035;-72
2021/03/05 09:02:50;;;;;;;6.57;3.00;;;7.80;99.90;;;;;;5109232;28;20024;-72
2021/03/05 09:05:25;;;;;;;8.82;2.50;;;8.00;99.90;;;;;;5110899;28;20034;-72
2021/03/05 09:07:53;;;;;;;9.68;2.40;;;7.80;99.90;;;;;;5110037;28;20065;-72
2021/03/05 09:10:20;;;;;;;6.53;2.25;;;7.20;99.90;;;;;;5109763;28;20028;-73
2021/03/05 09:12:54;;;;;;;7.32;2.38;;;7.50;99.90;;;;;;5110207;28;20050;-72
2021/03/05 09:15:23;;;;;;;8.50;2.67;;;8.90;99.90;;;;;;5110663;28;20400;-72
2021/03/05 09:17:49;;;;;;;7.03;2.70;;;8.20;99.90;;;;;;5110458;28;20027;-72
2021/03/05 09:20:14;;;;;;;9.82;2.45;;;7.90;99.90;;;;;;5109074;28;20035;-72
2021/03/05 09:22:40;;;;;;;7.75;2.38;;;9.20;99.90;;;;;;5108763;28;20106;-72
2021/03/05 09:25:06;;;;;;;8.15;2.35;;;9.00;99.90;;;;;;5092315;28;20020;-71
2021/03/05 09:27:34;;;;;;;9.23;2.33;;;9.90;99.90;;;;;;5109622;28;20016;-73
2021/03/05 09:30:26;;;;;;;6.88;2.47;;;11.70;95.20;;;;;;5109860;28;20073;-73
2021/03/05 09:32:53;;;;;;;8.15;2.78;;;11.40;97.50;;;;;;5108252;28;20036;-73
2021/03/05 09:35:26;;;;;;;5.57;2.00;;;12.30;92.20;;;;;;5108734;28;20107;-73
2021/03/05 09:37:52;;;;;;;10.43;2.75;;;9.80;95.50;;;;;;5092184;28;20373;-73
2021/03/05 09:40:18;;;;;;;6.68;2.78;;;9.50;99.90;;;;;;5109802;28;20020;-73
2021/03/05 09:42:50;;;;;;;4.90;2.58;;;11.30;97.10;;;;;;5108145;28;20054;-73
2021/03/05 09:45:37;;;;;;;4.85;2.75;;;11.60;90.30;;;;;;5075395;28;20016;-73
2021/03/05 09:48:05;;;;;;;7.10;2.65;;;10.60;92.70;;;;;;5108356;28;20028;-73
2021/03/05 09:50:31;;;;;;;7.85;2.30;;;10.00;92.30;;;;;;5109893;28;20012;-73
2021/03/05 09:52:57;;;;;;;5.13;2.25;;;10.50;93.60;;;;;;5103790;28;20024;-73
2021/03/05 09:55:28;;;;;;;6.40;1.95;;;11.00;80.20;;;;;;5096789;28;20153;-73
2021/03/05 09:57:55;;;;;;;4.00;2.00;;;10.90;87.00;;;;;;5094054;28;20452;-73
2021/03/05 10:00:30;;;;;;;7.38;2.28;;;12.90;77.10;;;;;;5096138;28;20027;-73
2021/03/05 10:03:09;;;;;;;10.32;3.00;;;12.20;67.70;;;;;;5096150;28;20024;-73
2021/03/05 10:05:37;;;;;;;5.63;2.03;;;9.40;89.60;;;;;;5093917;28;20097;-73
2021/03/05 10:08:20;;;;;;;8.80;2.78;;;8.90;89.20;;;;;;5093565;28;20466;-73
2021/03/05 10:11:08;;;;;;;9.63;3.15;;;8.90;93.80;;;;;;5091932;28;20035;-74
2021/03/05 10:16:29;;;;;;;10.73;3.08;;;9.10;91.20;;;;;;5110453;27;20374;-73
2021/03/05 10:19:02;;;;;;;7.93;2.70;;;8.30;96.10;;;;;;5109263;28;20038;-73
2021/03/05 10:21:28;;;;;;;9.57;2.60;;;8.90;97.90;;;;;;5096324;28;20016;-74
2021/03/05 10:23:54;;;;;;;11.73;2.80;;;8.20;99.80;;;;;;5101142;28;20016;-73
2021/03/05 10:26:22;;;;;;;8.30;3.03;;;8.60;98.30;;;;;;5101669;28;20020;-74
2021/03/05 10:28:54;;;;;;;9.25;2.70;;;8.30;98.00;;;;;;5102233;28;20024;-73
2021/03/05 10:31:20;;;;;;;6.35;2.72;;;7.10;99.90;;;;;;5103870;28;20020;-74
2021/03/05 10:33:46;;;;;;;9.48;3.05;;;7.70;99.90;;;;;;5090501;28;20380;-74
2021/03/05 10:36:14;;;;;;;6.95;2.38;;;8.10;99.90;;;;;;5092777;28;20392;-74
2021/03/05 10:38:40;;;;;;;5.35;2.75;;;8.80;97.00;;;;;;5111182;28;20024;-72
2021/03/05 10:41:06;;;;;;;5.40;2.13;;;9.00;94.50;;;;;;5106997;28;20099;-75
2021/03/05 10:43:35;;;;;;;5.45;2.17;;;9.90;91.50;;;;;;5090592;28;20556;-75
2021/03/05 10:46:01;;;;;;;7.68;2.28;;;10.70;82.80;;;;;;5091615;28;20050;-74
2021/03/05 10:48:27;;;;;;;8.30;2.33;;;11.10;82.70;;;;;;5090200;28;20555;-72
2021/03/05 10:50:52;;;;;;;5.97;2.10;;;10.70;88.20;;;;;;5090780;28;20120;-75
2021/03/05 10:53:18;;;;;;;4.30;2.17;;;9.20;90.50;;;;;;5110591;28;20037;-75
2021/03/05 10:55:43;;;;;;;8.20;2.20;;;8.30;94.80;;;;;;5109576;28;20077;-73
2021/03/05 10:58:09;;;;;;;6.10;2.10;;;7.90;98.40;;;;;;5093999;28;20034;-75
2021/03/05 11:00:34;;;;;;;7.82;2.83;;;7.10;99.90;;;;;;5100687;28;20039;-75
2021/03/05 11:03:00;;;;;;;7.57;1.92;;;8.50;97.70;;;;;;5095998;28;20037;-75
2021/03/05 11:05:26;;;;;;;5.45;1.85;;;9.20;95.50;;;;;;5089736;28;20024;-75
2021/03/05 11:07:53;;;;;;;3.95;1.77;;;6.60;99.90;;;;;;5091831;28;20415;-75
2021/03/05 11:10:20;;;;;;;5.82;1.80;;;6.60;99.90;;;;;;5106589;28;20096;-74
2021/03/05 11:12:47;;;;;;;6.55;1.80;;;6.10;99.90;;;;;;5090498;28;20035;-72
2021/03/05 11:15:13;;;;;;;3.25;2.00;;;5.90;99.90;;;;;;5089448;28;20374;-74
2021/03/05 11:17:38;;;;;;;2.95;1.85;;;6.90;99.90;;;;;;5100255;28;20032;-73
2021/03/05 11:20:05;;;;;;;4.57;1.60;;;8.90;99.10;;;;;;5110060;28;20377;-73
2021/03/05 11:22:31;;;;;;;3.33;1.65;;;9.60;97.50;;;;;;5100705;28;20480;-73
2021/03/05 11:24:57;;;;;;;5.38;1.98;;;9.10;95.90;;;;;;5089162;28;20062;-73
2021/03/05 11:27:22;;;;;;;5.03;2.03;;;9.70;95.00;;;;;;5079057;28;20047;-73
2021/03/05 11:29:48;;;;;;;7.13;2.10;;;8.60;92.20;;;;;;5075864;28;20029;-73
2021/03/05 11:32:15;;;;;;;4.47;1.73;;;8.10;96.80;;;;;;5080681;28;20031;-73
2021/03/05 11:34:41;;;;;;;9.32;2.30;;;7.70;99.90;;;;;;5092465;28;20030;-73
2021/03/05 11:37:07;;;;;;;3.15;1.88;;;8.00;99.90;;;;;;5077450;28;20012;-74
2021/03/05 11:39:33;;;;;;;6.32;1.83;;;7.20;99.90;;;;;;5094354;28;20085;-74
2021/03/05 11:41:58;;;;;;;5.15;1.92;;;7.40;99.90;;;;;;5094201;28;20020;-74
2021/03/05 11:44:26;;;;;;;5.28;1.75;;;6.70;99.90;;;;;;5085730;28;20040;-74
2021/03/05 11:46:51;;;;;;;2.95;1.92;;;5.90;99.90;;;;;;5078158;28;20043;-74
2021/03/05 11:49:17;;;;;;;5.55;1.90;;;5.60;99.90;;;;;;5078653;28;20028;-73
2021/03/05 11:51:42;;;;;;;3.60;1.90;;;5.60;99.90;;;;;;5080186;28;20039;-74
2021/03/05 11:54:08;;;;;;;3.63;2.00;;;5.20;99.90;;;;;;5095642;28;20492;-74
2021/03/05 11:56:34;;;;;;;4.60;1.95;;;5.10;99.90;;;;;;5082439;28;20519;-74
2021/03/05 11:59:05;;;;;;;3.60;1.88;;;5.10;99.90;;;;;;5075513;28;20381;-74
2021/03/05 12:01:30;;;;;;;5.93;1.88;;;5.30;99.90;;;;;;5076234;28;20071;-74
2021/03/05 12:03:56;;;;;;;3.45;1.70;;;5.50;99.90;;;;;;5074017;28;20059;-74
2021/03/05 12:06:22;;;;;;;5.47;2.38;;;5.30;99.90;;;;;;5085142;28;20024;-74
2021/03/05 12:08:49;;;;;;;4.30;1.88;;;5.50;99.90;;;;;;5095397;28;20023;-74
2021/03/05 12:11:14;;;;;;;5.45;2.30;;;6.10;99.90;;;;;;5093724;28;20032;-74
2021/03/05 12:13:40;;;;;;;7.38;2.67;;;6.30;99.90;;;;;;5094344;28;20023;-74
2021/03/05 12:16:05;;;;;;;4.10;2.85;;;6.20;99.90;;;;;;5081006;28;20037;-74
2021/03/05 12:18:31;;;;;;;7.07;2.55;;;6.20;99.90;;;;;;5075178;28;20424;-74
2021/03/05 12:20:57;;;;;;;7.60;2.38;;;6.00;99.90;;;;;;5075953;28;20115;-73
2021/03/05 12:23:22;;;;;;;9.10;2.40;;;6.10;99.90;;;;;;5075531;28;20020;-73
2021/03/05 12:25:48;;;;;;;4.25;2.75;;;5.90;99.90;;;;;;5084884;28;20032;-73
2021/03/05 12:28:13;;;;;;;5.53;1.80;;;6.40;99.90;;;;;;5094101;28;20032;-73
2021/03/05 12:30:39;;;;;;;4.05;2.00;;;6.30;99.90;;;;;;5093605;28;20028;-74
2021/03/05 12:33:05;;;;;;;8.18;2.45;;;6.40;99.90;;;;;;5094932;28;20035;-74
2021/03/05 12:35:30;;;;;;;5.00;1.70;;;6.50;99.20;;;;;;5090464;28;20036;-74
2021/03/05 12:37:56;;;;;;;5.97;1.98;;;6.20;99.80;;;;;;5094027;28;20027;-74
2021/03/05 12:40:22;;;;;;;10.10;1.80;;;6.20;99.90;;;;;;5088422;28;20031;-74
2021/03/05 12:42:56;;;;;;;7.25;2.58;;;6.40;98.90;;;;;;5074638;28;20503;-74
2021/03/05 12:45:23;;;;;;;5.88;2.17;;;6.40;98.80;;;;;;5075715;28;20035;-74
2021/03/05 12:47:49;;;;;;;5.38;1.85;;;6.60;99.30;;;;;;5074565;28;20024;-74
2021/03/05 12:50:15;;;;;;;2.70;1.40;;;6.10;96.40;;;;;;5076241;28;20481;-73
2021/03/05 12:52:41;;;;;;;4.15;1.80;;;5.90;97.30;;;;;;5094461;28;20028;-73
2021/03/05 12:55:07;;;;;;;4.95;1.42;;;5.80;99.80;;;;;;5092828;28;20020;-73
2021/03/05 12:57:32;;;;;;;6.00;1.65;;;6.10;98.90;;;;;;5074460;28;20047;-74
2021/03/05 12:59:58;;;;;;;4.25;1.88;;;6.30;98.60;;;;;;5073048;28;20024;-74
2021/03/05 13:02:24;;;;;;;4.45;1.48;;;6.50;97.00;;;;;;5072934;28;20031;-74
2021/03/05 13:04:49;;;;;;;3.13;1.80;;;6.40;96.50;;;;;;5072630;28;20120;-74
2021/03/05 13:07:15;;;;;;;4.40;1.35;;;6.20;96.40;;;;;;5073968;28;20029;-73
2021/03/05 13:09:41;;;;;;;2.08;1.27;;;6.30;99.90;;;;;;5072942;28;20089;-73
2021/03/05 13:12:08;;;;;;;4.75;1.55;;;6.40;96.80;;;;;;5071682;28;20484;-74
2021/03/05 13:14:34;;;;;;;5.97;1.70;;;6.60;97.10;;;;;;5092766;28;20055;-74
2021/03/05 13:16:59;;;;;;;1.90;1.15;;;7.00;97.20;;;;;;5090903;28;20032;-74
2021/03/05 13:19:25;;;;;;;4.30;1.20;;;6.80;93.60;;;;;;5093115;28;20031;-74
2021/03/05 13:21:50;;;;;;;5.82;1.92;;;6.50;96.20;;;;;;5081228;28;20123;-74
2021/03/05 13:24:16;;;;;;;3.30;1.60;;;6.60;95.40;;;;;;5072654;28;20028;-74
2021/03/05 13:26:43;;;;;;;4.32;1.85;;;6.20;95.90;;;;;;5083972;28;20035;-74
2021/03/05 13:29:09;;;;;;;2.55;1.40;;;6.20;96.20;;;;;;5093726;28;20020;-74
2021/03/05 13:31:35;;;;;;;5.05;1.55;;;6.20;96.80;;;;;;5091978;28;20034;-73
2021/03/05 13:34:00;;;;;;;2.72;1.27;;;6.30;94.40;;;;;;5082682;28;20020;-74
2021/03/05 13:36:26;;;;;;;8.77;1.60;;;5.70;92.90;;;;;;5072406;28;20078;-74